createdAt,value
2016-06-04T04:15:31.596Z,42
2016-06-04T04:18:38.120Z,43
2016-06-04T04:18:56.247Z,44
2016-06-04T04:19:14.513Z,43
2016-06-04T04:19:32.778Z,43
2016-06-04T04:19:51.047Z,43
2016-06-04T04:20:09.313Z,43
2016-06-04T04:20:27.578Z,43
2016-06-04T04:20:45.844Z,43
2016-06-04T04:21:04.159Z,44
2016-06-04T04:21:22.394Z,44
2016-06-04T04:21:40.675Z,44
2016-06-04T04:21:58.944Z,44
2016-06-04T04:22:17.209Z,44
2016-06-04T04:22:35.490Z,44
2016-06-04T04:22:53.805Z,44
2016-06-04T04:23:12.071Z,44
2016-06-04T04:23:30.352Z,44
2016-06-04T04:23:48.602Z,44
2016-06-04T04:24:06.886Z,44
2016-06-04T04:24:25.152Z,44
2016-06-04T04:24:43.417Z,44
2016-06-04T04:25:01.686Z,44
2016-06-04T04:25:19.952Z,44
2016-06-04T04:25:38.155Z,44
2016-06-04T04:25:56.158Z,44
2016-06-04T04:26:14.283Z,44
2016-06-04T04:26:32.080Z,44
2016-06-04T04:26:50.345Z,44
2016-06-04T04:27:08.613Z,44
2016-06-04T04:27:26.878Z,44
2016-06-04T04:27:45.144Z,44
2016-06-04T04:28:03.413Z,44
2016-06-04T04:28:21.678Z,44
2016-06-04T04:28:39.944Z,44
2016-06-04T04:28:58.213Z,44
2016-06-04T04:29:16.478Z,44
2016-06-04T04:29:34.744Z,44
2016-06-04T04:29:53.011Z,44
2016-06-04T04:30:11.293Z,44
2016-06-04T04:30:29.386Z,44
2016-06-04T04:30:47.652Z,44
2016-06-04T04:31:05.920Z,44
2016-06-04T04:31:24.185Z,44
2016-06-04T04:31:42.451Z,44
2016-06-04T04:32:00.704Z,44
2016-06-04T04:32:18.985Z,44
2016-06-04T04:32:37.251Z,44
2016-06-04T04:32:55.504Z,44
2016-06-04T04:33:13.785Z,44
2016-06-04T04:33:32.051Z,44
2016-06-04T04:33:50.316Z,44
2016-06-04T04:34:08.585Z,44
2016-06-04T04:34:26.851Z,44
2016-06-04T04:34:45.116Z,44
2016-06-04T04:35:03.384Z,44
2016-06-04T04:35:21.649Z,44
2016-06-04T04:35:39.915Z,43
2016-06-04T04:35:58.199Z,43
2016-06-04T04:36:16.465Z,43
2016-06-04T04:36:34.731Z,43
2016-06-04T04:36:52.999Z,43
2016-06-04T04:37:11.265Z,43
2016-06-04T04:37:29.546Z,43
2016-06-04T04:37:47.812Z,43
2016-06-04T04:38:06.095Z,43
2016-06-04T04:38:24.361Z,43
2016-06-04T04:38:42.626Z,43
2016-06-04T04:39:00.911Z,43
2016-06-04T04:39:19.161Z,43
2016-06-04T04:39:37.427Z,43
2016-06-04T04:39:55.695Z,43
2016-06-04T04:40:13.960Z,43
2016-06-04T04:40:32.210Z,43
2016-06-04T04:40:50.492Z,43
2016-06-04T04:41:08.760Z,43
2016-06-04T04:41:26.995Z,43
2016-06-04T04:41:44.979Z,43
2016-06-04T04:42:03.247Z,43
2016-06-04T04:42:21.497Z,43
2016-06-04T04:42:39.762Z,43
2016-06-04T04:42:58.046Z,43
2016-06-04T04:43:16.312Z,43
2016-06-04T04:43:34.578Z,43
2016-06-04T04:43:52.846Z,43
2016-06-04T04:44:11.112Z,43
2016-06-04T04:44:29.393Z,43
2016-06-04T04:44:47.659Z,43
2016-06-04T04:45:05.959Z,43
2016-06-04T04:45:24.287Z,43
2016-06-04T04:45:42.552Z,43
2016-06-04T04:46:00.804Z,43
2016-06-04T04:46:19.070Z,43
2016-06-04T04:46:37.351Z,43
2016-06-04T04:46:55.620Z,43
2016-06-04T04:47:13.886Z,43
2016-06-04T04:47:32.167Z,43
2016-06-04T04:47:50.448Z,43
2016-06-04T04:48:08.700Z,43
2016-06-04T04:48:26.997Z,43
2016-06-04T04:48:45.263Z,43
2016-06-04T04:49:03.547Z,43
2016-06-04T04:49:21.812Z,43
2016-06-04T04:49:40.078Z,43
2016-06-04T04:49:58.362Z,43
2016-06-04T04:50:16.628Z,43
2016-06-04T04:50:34.894Z,43
2016-06-04T04:50:53.178Z,43
2016-06-04T04:51:11.443Z,43
2016-06-04T04:51:29.725Z,43
2016-06-04T04:51:47.975Z,43
2016-06-04T04:52:06.258Z,43
2016-06-04T04:52:24.508Z,43
2016-06-04T04:52:42.649Z,43
2016-06-04T04:53:00.917Z,43
2016-06-04T04:53:19.183Z,43
2016-06-04T04:53:37.464Z,43
2016-06-04T04:53:55.748Z,43
2016-06-04T04:54:14.030Z,43
2016-06-04T04:54:32.280Z,43
2016-06-04T04:54:50.561Z,43
2016-06-04T04:55:08.829Z,43
2016-06-04T04:55:27.111Z,44
2016-06-04T04:55:45.376Z,44
2016-06-04T04:56:04.378Z,44
2016-06-04T04:56:21.456Z,44
2016-06-04T04:56:39.581Z,43
2016-06-04T04:56:57.865Z,44
2016-06-04T04:57:16.177Z,43
2016-06-04T04:57:34.396Z,43
2016-06-04T04:57:52.681Z,43
2016-06-04T04:58:10.962Z,43
2016-06-04T04:58:29.212Z,43
2016-06-04T04:58:47.478Z,43
2016-06-04T04:59:05.777Z,43
2016-06-04T04:59:24.011Z,43
2016-06-04T04:59:42.277Z,43
2016-06-04T05:00:00.560Z,43
2016-06-04T05:00:18.826Z,43
2016-06-04T05:00:37.107Z,43
2016-06-04T05:00:55.376Z,43
2016-06-04T05:01:13.641Z,43
2016-06-04T05:01:31.923Z,43
2016-06-04T05:01:50.188Z,43
2016-06-04T05:02:08.457Z,43
2016-06-04T05:02:26.738Z,43
2016-06-04T05:02:44.988Z,43
2016-06-04T05:03:03.272Z,43
2016-06-04T05:03:21.554Z,43
2016-06-04T05:03:39.804Z,43
2016-06-04T05:03:58.072Z,43
2016-06-04T05:04:16.182Z,43
2016-06-04T05:04:34.447Z,43
2016-06-04T05:04:52.715Z,43
2016-06-04T05:05:10.996Z,43
2016-06-04T05:05:29.246Z,43
2016-06-04T05:05:47.512Z,43
2016-06-04T05:06:05.796Z,43
2016-06-04T05:06:24.093Z,43
2016-06-04T05:06:42.343Z,43
2016-06-04T05:07:00.627Z,43
2016-06-04T05:07:18.908Z,43
2016-06-04T05:07:37.174Z,43
2016-06-04T05:07:55.442Z,43
2016-06-04T05:08:13.692Z,43
2016-06-04T05:08:31.957Z,43
2016-06-04T05:08:50.223Z,43
2016-06-04T05:09:08.491Z,43
2016-06-04T05:09:26.773Z,43
2016-06-04T05:09:45.023Z,43
2016-06-04T05:10:03.291Z,43
2016-06-04T05:10:21.557Z,43
2016-06-04T05:10:40.385Z,43
2016-06-04T05:10:58.746Z,43
2016-06-04T05:11:16.215Z,43
2016-06-04T05:11:34.012Z,42
2016-06-04T05:11:52.121Z,42
2016-06-04T05:12:10.249Z,42
2016-06-04T05:12:28.499Z,42
2016-06-04T05:12:46.765Z,42
2016-06-04T05:13:05.034Z,42
2016-06-04T05:13:23.299Z,42
2016-06-04T05:13:41.565Z,42
2016-06-04T05:13:59.849Z,42
2016-06-04T05:14:18.130Z,42
2016-06-04T05:14:36.427Z,42
2016-06-04T05:14:54.711Z,42
2016-06-04T05:15:12.976Z,42
2016-06-04T05:15:31.226Z,42
2016-06-04T05:15:49.507Z,42
2016-06-04T05:16:07.775Z,42
2016-06-04T05:16:26.134Z,42
2016-06-04T05:16:44.338Z,42
2016-06-04T05:17:02.592Z,42
2016-06-04T05:17:20.857Z,42
2016-06-04T05:17:39.138Z,42
2016-06-04T05:17:57.406Z,42
2016-06-04T05:18:15.656Z,42
2016-06-04T05:18:33.937Z,42
2016-06-04T05:18:52.203Z,42
2016-06-04T05:19:10.472Z,42
2016-06-04T05:19:28.737Z,42
2016-06-04T05:19:47.050Z,42
2016-06-04T05:20:05.334Z,42
2016-06-04T05:20:23.600Z,42
2016-06-04T05:20:41.959Z,42
2016-06-04T05:21:00.149Z,42
2016-06-04T05:21:18.415Z,42
2016-06-04T05:21:36.524Z,42
2016-06-04T05:21:54.823Z,42
2016-06-04T05:22:13.073Z,42
2016-06-04T05:22:31.355Z,42
2016-06-04T05:22:49.651Z,42
2016-06-04T05:23:07.966Z,42
2016-06-04T05:23:26.232Z,42
2016-06-04T05:23:44.513Z,42
2016-06-04T05:24:02.782Z,42
2016-06-04T05:24:21.048Z,42
2016-06-04T05:24:39.329Z,42
2016-06-04T05:24:57.597Z,42
2016-06-04T05:25:15.909Z,42
2016-06-04T05:25:34.644Z,42
2016-06-04T05:25:52.409Z,42
2016-06-04T05:26:10.522Z,42
2016-06-04T05:26:28.616Z,42
2016-06-04T05:26:47.053Z,42
2016-06-04T05:27:05.164Z,42
2016-06-04T05:27:23.430Z,42
2016-06-04T05:27:41.696Z,42
2016-06-04T05:27:59.980Z,42
2016-06-04T05:28:18.230Z,42
2016-06-04T05:28:36.511Z,42
2016-06-04T05:28:54.795Z,42
2016-06-04T05:29:13.077Z,42
2016-06-04T05:29:31.358Z,42
2016-06-04T05:29:49.624Z,42
2016-06-04T05:30:07.891Z,42
2016-06-04T05:30:26.157Z,42
2016-06-04T05:30:44.422Z,42
2016-06-04T05:31:02.691Z,42
2016-06-04T05:31:20.957Z,42
2016-06-04T05:31:39.238Z,42
2016-06-04T05:31:57.507Z,42
2016-06-04T05:32:15.757Z,42
2016-06-04T05:32:34.038Z,42
2016-06-04T05:32:52.303Z,42
2016-06-04T05:33:10.588Z,42
2016-06-04T05:33:28.853Z,42
2016-06-04T05:33:47.135Z,42
2016-06-04T05:34:05.230Z,42
2016-06-04T05:34:23.340Z,42
2016-06-04T05:34:41.605Z,42
2016-06-04T05:34:59.874Z,42
2016-06-04T05:35:17.983Z,42
2016-06-04T05:35:36.249Z,42
2016-06-04T05:35:54.532Z,42
2016-06-04T05:36:12.798Z,42
2016-06-04T05:36:31.063Z,41
2016-06-04T05:36:49.345Z,41
2016-06-04T05:37:07.630Z,41
2016-06-04T05:37:25.880Z,41
2016-06-04T05:37:44.161Z,41
2016-06-04T05:38:02.429Z,41
2016-06-04T05:38:20.710Z,41
2016-06-04T05:38:38.976Z,41
2016-06-04T05:38:57.244Z,41
2016-06-04T05:39:15.526Z,41
2016-06-04T05:39:33.807Z,41
2016-06-04T05:39:52.072Z,41
2016-06-04T05:40:10.341Z,41
2016-06-04T05:40:28.654Z,41
2016-06-04T05:40:47.294Z,41
2016-06-04T05:41:05.031Z,41
2016-06-04T05:41:23.296Z,41
2016-06-04T05:41:41.812Z,41
2016-06-04T05:41:59.690Z,41
2016-06-04T05:42:17.784Z,41
2016-06-04T05:42:36.049Z,41
2016-06-04T05:42:54.332Z,41
2016-06-04T05:43:12.582Z,41
2016-06-04T05:43:30.848Z,41
2016-06-04T05:43:49.114Z,40
2016-06-04T05:44:07.398Z,40
2016-06-04T05:44:25.664Z,40
2016-06-04T05:44:43.929Z,40
2016-06-04T05:45:02.213Z,40
2016-06-04T05:45:20.463Z,40
2016-06-04T05:45:38.745Z,40
2016-06-04T05:45:56.997Z,40
2016-06-04T05:46:15.262Z,40
2016-06-04T05:46:33.544Z,40
2016-06-04T05:46:51.809Z,40
2016-06-04T05:47:10.109Z,40
2016-06-04T05:47:28.203Z,40
2016-06-04T05:47:46.468Z,40
2016-06-04T05:48:04.737Z,40
2016-06-04T05:48:23.018Z,40
2016-06-04T05:48:41.284Z,40
2016-06-04T05:48:59.553Z,40
2016-06-04T05:49:17.662Z,40
2016-06-04T05:49:35.912Z,40
2016-06-04T05:49:54.242Z,40
2016-06-04T05:50:12.461Z,40
2016-06-04T05:50:30.726Z,40
2016-06-04T05:50:49.008Z,40
2016-06-04T05:51:07.276Z,40
2016-06-04T05:51:25.542Z,40
2016-06-04T05:51:43.792Z,40
2016-06-04T05:52:02.076Z,40
2016-06-04T05:52:20.342Z,40
2016-06-04T05:52:38.607Z,40
2016-06-04T05:52:56.891Z,39
2016-06-04T05:53:15.156Z,39
2016-06-04T05:53:33.422Z,39
2016-06-04T05:53:51.547Z,39
2016-06-04T05:54:09.816Z,39
2016-06-04T05:54:28.097Z,39
2016-06-04T05:54:46.206Z,39
2016-06-04T05:55:04.475Z,39
2016-06-04T05:55:22.740Z,39
2016-06-04T05:55:41.006Z,39
2016-06-04T05:55:59.289Z,39
2016-06-04T05:56:17.555Z,39
2016-06-04T05:56:35.680Z,39
2016-06-04T05:56:53.946Z,39
2016-06-04T05:57:11.902Z,39
2016-06-04T05:57:30.167Z,39
2016-06-04T05:57:48.417Z,39
2016-06-04T05:58:06.702Z,39
2016-06-04T05:58:24.795Z,39
2016-06-04T05:58:43.061Z,39
2016-06-04T05:59:01.345Z,39
2016-06-04T05:59:19.611Z,39
2016-06-04T05:59:37.892Z,39
2016-06-04T05:59:56.175Z,39
2016-06-04T06:00:14.425Z,39
2016-06-04T06:00:32.691Z,39
2016-06-04T06:00:50.972Z,39
2016-06-04T06:01:09.225Z,39
2016-06-04T06:01:27.506Z,39
2016-06-04T06:01:45.772Z,39
2016-06-04T06:02:04.040Z,39
2016-06-04T06:02:22.305Z,39
2016-06-04T06:02:40.602Z,39
2016-06-04T06:02:58.872Z,39
2016-06-04T06:03:17.137Z,39
2016-06-04T06:03:35.419Z,39
2016-06-04T06:03:53.700Z,39
2016-06-04T06:04:11.968Z,39
2016-06-04T06:04:30.218Z,39
2016-06-04T06:04:48.499Z,39
2016-06-04T06:05:06.752Z,39
2016-06-04T06:05:25.017Z,38
2016-06-04T06:05:43.299Z,38
2016-06-04T06:06:01.582Z,38
2016-06-04T06:06:19.848Z,38
2016-06-04T06:06:38.129Z,38
2016-06-04T06:06:56.429Z,38
2016-06-04T06:07:14.710Z,38
2016-06-04T06:07:32.991Z,38
2016-06-04T06:07:51.257Z,38
2016-06-04T06:08:09.524Z,38
2016-06-04T06:08:27.790Z,38
2016-06-04T06:08:46.056Z,38
2016-06-04T06:09:04.324Z,38
2016-06-04T06:09:22.606Z,38
2016-06-04T06:09:40.871Z,38
2016-06-04T06:09:59.140Z,38
2016-06-04T06:10:17.405Z,38
2016-06-04T06:10:36.046Z,38
2016-06-04T06:10:53.484Z,38
2016-06-04T06:11:11.971Z,38
2016-06-04T06:11:30.065Z,38
2016-06-04T06:11:47.815Z,38
2016-06-04T06:12:05.785Z,38
2016-06-04T06:12:23.895Z,38
2016-06-04T06:12:42.160Z,38
2016-06-04T06:13:00.429Z,38
2016-06-04T06:13:18.710Z,38
2016-06-04T06:13:36.976Z,38
2016-06-04T06:13:55.245Z,38
2016-06-04T06:14:13.510Z,38
2016-06-04T06:14:31.776Z,38
2016-06-04T06:14:50.104Z,38
2016-06-04T06:15:08.388Z,38
2016-06-04T06:15:26.638Z,38
2016-06-04T06:15:44.919Z,38
2016-06-04T06:16:03.187Z,38
2016-06-04T06:16:21.453Z,38
2016-06-04T06:16:39.734Z,38
2016-06-04T06:16:58.003Z,38
2016-06-04T06:17:16.284Z,38
2016-06-04T06:17:34.549Z,38
2016-06-04T06:17:52.831Z,38
2016-06-04T06:18:11.099Z,38
2016-06-04T06:18:29.381Z,38
2016-06-04T06:18:47.646Z,38
2016-06-04T06:19:05.914Z,38
2016-06-04T06:19:24.179Z,38
2016-06-04T06:19:42.461Z,38
2016-06-04T06:20:00.714Z,38
2016-06-04T06:20:19.011Z,38
2016-06-04T06:20:37.120Z,38
2016-06-04T06:20:55.401Z,38
2016-06-04T06:21:13.685Z,38
2016-06-04T06:21:31.935Z,38
2016-06-04T06:21:50.201Z,38
2016-06-04T06:22:08.516Z,38
2016-06-04T06:22:26.609Z,38
2016-06-04T06:22:44.891Z,38
2016-06-04T06:23:03.144Z,38
2016-06-04T06:23:21.425Z,38
2016-06-04T06:23:39.690Z,38
2016-06-04T06:23:57.958Z,38
2016-06-04T06:24:16.224Z,37
2016-06-04T06:24:34.489Z,37
2016-06-04T06:24:52.755Z,38
2016-06-04T06:25:11.024Z,37
2016-06-04T06:25:29.149Z,38
2016-06-04T06:25:47.477Z,37
2016-06-04T06:26:05.996Z,38
2016-06-04T06:26:23.559Z,37
2016-06-04T06:26:41.699Z,38
2016-06-04T06:26:59.795Z,37
2016-06-04T06:27:17.920Z,38
2016-06-04T06:27:36.201Z,37
2016-06-04T06:27:54.467Z,37
2016-06-04T06:28:12.735Z,37
2016-06-04T06:28:31.000Z,37
2016-06-04T06:28:49.297Z,37
2016-06-04T06:29:07.566Z,38
2016-06-04T06:29:25.816Z,38
2016-06-04T06:29:44.081Z,37
2016-06-04T06:30:02.366Z,37
2016-06-04T06:30:20.631Z,37
2016-06-04T06:30:38.913Z,37
2016-06-04T06:30:57.180Z,37
2016-06-04T06:31:15.446Z,38
2016-06-04T06:31:33.711Z,37
2016-06-04T06:31:51.977Z,37
2016-06-04T06:32:10.246Z,37
2016-06-04T06:32:28.511Z,37
2016-06-04T06:32:46.777Z,37
2016-06-04T06:33:05.061Z,37
2016-06-04T06:33:23.311Z,37
2016-06-04T06:33:41.592Z,37
2016-06-04T06:33:59.861Z,37
2016-06-04T06:34:18.127Z,37
2016-06-04T06:34:36.408Z,37
2016-06-04T06:34:54.674Z,37
2016-06-04T06:35:12.941Z,37
2016-06-04T06:35:31.207Z,37
2016-06-04T06:35:49.472Z,37
2016-06-04T06:36:07.757Z,37
2016-06-04T06:36:26.022Z,37
2016-06-04T06:36:44.288Z,37
2016-06-04T06:37:02.619Z,37
2016-06-04T06:37:20.947Z,37
2016-06-04T06:37:39.213Z,37
2016-06-04T06:37:57.480Z,37
2016-06-04T06:38:15.730Z,37
2016-06-04T06:38:33.996Z,37
2016-06-04T06:38:52.277Z,37
2016-06-04T06:39:10.546Z,37
2016-06-04T06:39:28.671Z,38
2016-06-04T06:39:46.921Z,37
2016-06-04T06:40:05.190Z,37
2016-06-04T06:40:23.455Z,38
2016-06-04T06:40:41.565Z,38
2016-06-04T06:40:59.692Z,38
2016-06-04T06:41:18.176Z,38
2016-06-04T06:41:36.223Z,38
2016-06-04T06:41:54.348Z,38
2016-06-04T06:42:12.616Z,38
2016-06-04T06:42:30.882Z,38
2016-06-04T06:42:49.148Z,38
2016-06-04T06:43:07.416Z,38
2016-06-04T06:43:25.682Z,38
2016-06-04T06:43:43.948Z,38
2016-06-04T06:44:02.215Z,37
2016-06-04T06:44:20.481Z,38
2016-06-04T06:44:38.746Z,38
2016-06-04T06:44:57.046Z,38
2016-06-04T06:45:15.296Z,37
2016-06-04T06:45:33.593Z,38
2016-06-04T06:45:51.859Z,37
2016-06-04T06:46:10.127Z,37
2016-06-04T06:46:28.409Z,37
2016-06-04T06:46:46.674Z,37
2016-06-04T06:47:04.943Z,37
2016-06-04T06:47:23.209Z,37
2016-06-04T06:47:41.552Z,37
2016-06-04T06:47:59.773Z,37
2016-06-04T06:48:18.039Z,37
2016-06-04T06:48:36.304Z,37
2016-06-04T06:48:54.570Z,37
2016-06-04T06:49:12.854Z,37
2016-06-04T06:49:31.104Z,37
2016-06-04T06:49:49.385Z,37
2016-06-04T06:50:07.653Z,37
2016-06-04T06:50:25.950Z,37
2016-06-04T06:50:44.216Z,37
2016-06-04T06:51:02.501Z,37
2016-06-04T06:51:20.766Z,37
2016-06-04T06:51:39.048Z,37
2016-06-04T06:51:57.315Z,37
2016-06-04T06:52:15.597Z,37
2016-06-04T06:52:33.862Z,37
2016-06-04T06:52:52.128Z,37
2016-06-04T06:53:10.256Z,37
2016-06-04T06:53:28.521Z,37
2016-06-04T06:53:46.787Z,37
2016-06-04T06:54:05.070Z,37
2016-06-04T06:54:23.352Z,37
2016-06-04T06:54:41.633Z,37
2016-06-04T06:54:59.901Z,37
2016-06-04T06:55:18.183Z,37
2016-06-04T06:55:36.448Z,37
2016-06-04T06:55:54.730Z,37
2016-06-04T06:56:12.842Z,37
2016-06-04T06:56:31.123Z,37
2016-06-04T06:56:48.936Z,37
2016-06-04T06:57:07.203Z,37
2016-06-04T06:57:25.485Z,37
2016-06-04T06:57:43.750Z,37
2016-06-04T06:58:02.019Z,37
2016-06-04T06:58:20.300Z,37
2016-06-04T06:58:38.581Z,37
2016-06-04T06:58:56.909Z,37
2016-06-04T06:59:15.178Z,37
2016-06-04T06:59:33.444Z,37
2016-06-04T06:59:51.709Z,37
2016-06-04T07:00:09.978Z,37
2016-06-04T07:00:28.103Z,37
2016-06-04T07:00:46.384Z,37
2016-06-04T07:01:04.653Z,37
2016-06-04T07:01:22.934Z,37
2016-06-04T07:01:41.184Z,37
2016-06-04T07:01:59.467Z,37
2016-06-04T07:02:17.733Z,37
2016-06-04T07:02:35.999Z,37
2016-06-04T07:02:54.264Z,37
2016-06-04T07:03:12.533Z,37
2016-06-04T07:03:30.798Z,37
2016-06-04T07:03:49.080Z,37
2016-06-04T07:04:07.332Z,37
2016-06-04T07:04:25.613Z,37
2016-06-04T07:04:43.879Z,37
2016-06-04T07:05:02.147Z,37
2016-06-04T07:05:20.428Z,37
2016-06-04T07:05:38.694Z,37
2016-06-04T07:05:56.960Z,37
2016-06-04T07:06:15.260Z,37
2016-06-04T07:06:33.525Z,37
2016-06-04T07:06:51.806Z,37
2016-06-04T07:07:09.919Z,37
2016-06-04T07:07:28.184Z,37
2016-06-04T07:07:46.466Z,37
2016-06-04T07:08:04.749Z,37
2016-06-04T07:08:23.015Z,37
2016-06-04T07:08:41.280Z,37
2016-06-04T07:08:59.423Z,37
2016-06-04T07:09:17.673Z,37
2016-06-04T07:09:35.954Z,37
2016-06-04T07:09:54.204Z,37
2016-06-04T07:10:12.488Z,37
2016-06-04T07:10:30.754Z,37
2016-06-04T07:10:49.629Z,37
2016-06-04T07:11:07.413Z,37
2016-06-04T07:11:26.069Z,37
2016-06-04T07:11:43.882Z,37
2016-06-04T07:12:02.446Z,37
2016-06-04T07:12:20.087Z,37
2016-06-04T07:12:38.353Z,37
2016-06-04T07:12:56.634Z,37
2016-06-04T07:13:14.903Z,37
2016-06-04T07:13:33.184Z,37
2016-06-04T07:13:51.481Z,37
2016-06-04T07:14:09.750Z,37
2016-06-04T07:14:28.032Z,37
2016-06-04T07:14:46.297Z,37
2016-06-04T07:15:04.565Z,37
2016-06-04T07:15:22.674Z,37
2016-06-04T07:15:40.955Z,37
2016-06-04T07:15:59.223Z,37
2016-06-04T07:16:17.489Z,37
2016-06-04T07:16:35.754Z,37
2016-06-04T07:16:54.036Z,37
2016-06-04T07:17:12.304Z,37
2016-06-04T07:17:30.414Z,37
2016-06-04T07:17:48.523Z,37
2016-06-04T07:18:06.635Z,37
2016-06-04T07:18:24.901Z,37
2016-06-04T07:18:43.182Z,37
2016-06-04T07:19:01.435Z,37
2016-06-04T07:19:19.701Z,37
2016-06-04T07:19:37.826Z,37
2016-06-04T07:19:55.951Z,37
2016-06-04T07:20:14.218Z,37
2016-06-04T07:20:32.500Z,37
2016-06-04T07:20:50.765Z,37
2016-06-04T07:21:08.909Z,37
2016-06-04T07:21:27.190Z,37
2016-06-04T07:21:45.471Z,37
2016-06-04T07:22:03.740Z,37
2016-06-04T07:22:22.006Z,37
2016-06-04T07:22:40.131Z,37
2016-06-04T07:22:58.415Z,37
2016-06-04T07:23:16.665Z,37
2016-06-04T07:23:34.946Z,37
2016-06-04T07:23:53.227Z,37
2016-06-04T07:24:11.495Z,37
2016-06-04T07:24:29.761Z,37
2016-06-04T07:24:48.042Z,37
2016-06-04T07:25:06.310Z,37
2016-06-04T07:25:24.591Z,37
2016-06-04T07:25:42.888Z,37
2016-06-04T07:26:01.220Z,37
2016-06-04T07:26:19.439Z,37
2016-06-04T07:26:38.173Z,37
2016-06-04T07:26:55.814Z,37
2016-06-04T07:27:14.112Z,36
2016-06-04T07:27:32.378Z,37
2016-06-04T07:27:50.644Z,36
2016-06-04T07:28:08.944Z,37
2016-06-04T07:28:27.209Z,36
2016-06-04T07:28:45.475Z,36
2016-06-04T07:29:03.743Z,36
2016-06-04T07:29:22.009Z,36
2016-06-04T07:29:40.322Z,36
2016-06-04T07:29:58.589Z,36
2016-06-04T07:30:16.839Z,36
2016-06-04T07:30:35.120Z,36
2016-06-04T07:30:53.402Z,36
2016-06-04T07:31:11.530Z,36
2016-06-04T07:31:29.811Z,36
2016-06-04T07:31:48.077Z,36
2016-06-04T07:32:06.344Z,36
2016-06-04T07:32:24.594Z,36
2016-06-04T07:32:42.875Z,36
2016-06-04T07:33:01.144Z,36
2016-06-04T07:33:19.457Z,36
2016-06-04T07:33:37.722Z,36
2016-06-04T07:33:55.988Z,36
2016-06-04T07:34:14.256Z,36
2016-06-04T07:34:32.522Z,36
2016-06-04T07:34:50.772Z,36
2016-06-04T07:35:09.056Z,36
2016-06-04T07:35:27.322Z,36
2016-06-04T07:35:45.603Z,36
2016-06-04T07:36:03.871Z,36
2016-06-04T07:36:22.152Z,36
2016-06-04T07:36:40.402Z,36
2016-06-04T07:36:58.668Z,36
2016-06-04T07:37:16.968Z,36
2016-06-04T07:37:35.233Z,36
2016-06-04T07:37:53.514Z,36
2016-06-04T07:38:11.783Z,36
2016-06-04T07:38:30.064Z,36
2016-06-04T07:38:48.314Z,36
2016-06-04T07:39:06.599Z,36
2016-06-04T07:39:24.911Z,36
2016-06-04T07:39:43.177Z,36
2016-06-04T07:40:01.304Z,36
2016-06-04T07:40:19.569Z,36
2016-06-04T07:40:37.851Z,36
2016-06-04T07:40:56.366Z,36
2016-06-04T07:41:14.229Z,36
2016-06-04T07:41:32.494Z,36
2016-06-04T07:41:50.775Z,36
2016-06-04T07:42:08.732Z,36
2016-06-04T07:42:27.013Z,36
2016-06-04T07:42:45.278Z,36
2016-06-04T07:43:03.563Z,36
2016-06-04T07:43:21.813Z,36
2016-06-04T07:43:40.078Z,36
2016-06-04T07:43:58.344Z,36
2016-06-04T07:44:16.612Z,36
2016-06-04T07:44:34.924Z,36
2016-06-04T07:44:53.158Z,36
2016-06-04T07:45:11.442Z,36
2016-06-04T07:45:29.707Z,36
2016-06-04T07:45:47.973Z,36
2016-06-04T07:46:06.242Z,36
2016-06-04T07:46:24.523Z,36
2016-06-04T07:46:42.773Z,36
2016-06-04T07:47:01.041Z,36
2016-06-04T07:47:19.323Z,36
2016-06-04T07:47:37.588Z,36
2016-06-04T07:47:55.838Z,36
2016-06-04T07:48:14.107Z,36
2016-06-04T07:48:32.388Z,36
2016-06-04T07:48:50.654Z,36
2016-06-04T07:49:08.906Z,36
2016-06-04T07:49:27.015Z,35
2016-06-04T07:49:45.296Z,35
2016-06-04T07:50:03.565Z,35
2016-06-04T07:50:21.846Z,35
2016-06-04T07:50:40.096Z,35
2016-06-04T07:50:58.362Z,35
2016-06-04T07:51:16.568Z,35
2016-06-04T07:51:34.849Z,35
2016-06-04T07:51:53.006Z,35
2016-06-04T07:52:11.273Z,35
2016-06-04T07:52:29.570Z,35
2016-06-04T07:52:47.836Z,35
2016-06-04T07:53:06.104Z,35
2016-06-04T07:53:24.370Z,35
2016-06-04T07:53:42.636Z,35
2016-06-04T07:54:00.903Z,35
2016-06-04T07:54:19.169Z,35
2016-06-04T07:54:37.434Z,35
2016-06-04T07:54:55.716Z,35
2016-06-04T07:55:14.001Z,35
2016-06-04T07:55:32.282Z,35
2016-06-04T07:55:50.532Z,35
2016-06-04T07:56:08.644Z,35
2016-06-04T07:56:26.909Z,35
2016-06-04T07:56:45.175Z,35
2016-06-04T07:57:03.147Z,35
2016-06-04T07:57:21.272Z,35
2016-06-04T07:57:39.522Z,35
2016-06-04T07:57:57.787Z,35
2016-06-04T07:58:16.056Z,35
2016-06-04T07:58:34.321Z,35
2016-06-04T07:58:52.618Z,35
2016-06-04T07:59:10.730Z,35
2016-06-04T07:59:29.011Z,35
2016-06-04T07:59:47.261Z,35
2016-06-04T08:00:05.545Z,35
2016-06-04T08:00:23.842Z,35
2016-06-04T08:00:42.108Z,35
2016-06-04T08:01:00.376Z,35
2016-06-04T08:01:18.658Z,35
2016-06-04T08:01:36.923Z,35
2016-06-04T08:01:55.048Z,35
2016-06-04T08:02:13.316Z,35
2016-06-04T08:02:31.581Z,35
2016-06-04T08:02:49.863Z,35
2016-06-04T08:03:08.131Z,34
2016-06-04T08:03:26.225Z,34
2016-06-04T08:03:44.506Z,34
2016-06-04T08:04:02.775Z,34
2016-06-04T08:04:21.056Z,34
2016-06-04T08:04:39.306Z,34
2016-06-04T08:04:57.587Z,34
2016-06-04T08:05:15.871Z,34
2016-06-04T08:05:34.152Z,34
2016-06-04T08:05:52.418Z,34
2016-06-04T08:06:10.702Z,34
2016-06-04T08:06:28.983Z,34
2016-06-04T08:06:47.108Z,34
2016-06-04T08:07:05.377Z,34
2016-06-04T08:07:23.486Z,34
2016-06-04T08:07:41.767Z,34
2016-06-04T08:08:00.036Z,34
2016-06-04T08:08:18.302Z,34
2016-06-04T08:08:36.427Z,34
2016-06-04T08:08:54.692Z,34
2016-06-04T08:09:12.960Z,34
2016-06-04T08:09:31.085Z,34
2016-06-04T08:09:49.350Z,34
2016-06-04T08:10:07.635Z,34
2016-06-04T08:10:25.900Z,34
2016-06-04T08:10:44.182Z,34
2016-06-04T08:11:02.277Z,34
2016-06-04T08:11:20.590Z,34
2016-06-04T08:11:38.855Z,34
2016-06-04T08:11:57.121Z,34
2016-06-04T08:12:16.749Z,34
2016-06-04T08:12:33.890Z,34
2016-06-04T08:12:52.015Z,34
2016-06-04T08:13:10.283Z,34
2016-06-04T08:13:28.252Z,34
2016-06-04T08:13:46.518Z,34
2016-06-04T08:14:04.801Z,34
2016-06-04T08:14:23.082Z,34
2016-06-04T08:14:41.348Z,34
2016-06-04T08:14:59.645Z,34
2016-06-04T08:15:17.914Z,34
2016-06-04T08:15:36.180Z,34
2016-06-04T08:15:54.461Z,34
2016-06-04T08:16:12.729Z,34
2016-06-04T08:16:30.994Z,34
2016-06-04T08:16:49.260Z,34
2016-06-04T08:17:07.560Z,34
2016-06-04T08:17:25.826Z,34
2016-06-04T08:17:44.091Z,34
2016-06-04T08:18:02.374Z,34
2016-06-04T08:18:20.656Z,34
2016-06-04T08:18:38.921Z,34
2016-06-04T08:18:57.187Z,34
2016-06-04T08:19:15.471Z,34
2016-06-04T08:19:33.737Z,34
2016-06-04T08:19:52.034Z,34
2016-06-04T08:20:10.443Z,34
2016-06-04T08:20:28.584Z,34
2016-06-04T08:20:46.865Z,34
2016-06-04T08:21:05.132Z,34
2016-06-04T08:21:23.414Z,34
2016-06-04T08:21:41.679Z,34
2016-06-04T08:21:59.945Z,34
2016-06-04T08:22:18.214Z,34
2016-06-04T08:22:36.495Z,34
2016-06-04T08:22:54.760Z,34
2016-06-04T08:23:13.044Z,34
2016-06-04T08:23:31.309Z,34
2016-06-04T08:23:49.591Z,34
2016-06-04T08:24:07.860Z,34
2016-06-04T08:24:25.985Z,34
2016-06-04T08:24:44.251Z,34
2016-06-04T08:25:02.518Z,34
2016-06-04T08:25:20.800Z,34
2016-06-04T08:25:39.081Z,34
2016-06-04T08:25:57.050Z,34
2016-06-04T08:26:15.162Z,34
2016-06-04T08:26:33.443Z,34
2016-06-04T08:26:51.584Z,34
2016-06-04T08:27:09.696Z,34
2016-06-04T08:27:27.978Z,34
2016-06-04T08:27:46.087Z,34
2016-06-04T08:28:04.370Z,34
2016-06-04T08:28:22.636Z,34
2016-06-04T08:28:40.901Z,34
2016-06-04T08:28:59.183Z,34
2016-06-04T08:29:17.451Z,34
2016-06-04T08:29:35.733Z,34
2016-06-04T08:29:53.998Z,34
2016-06-04T08:30:12.266Z,34
2016-06-04T08:30:30.547Z,34
2016-06-04T08:30:48.813Z,34
2016-06-04T08:31:07.097Z,34
2016-06-04T08:31:25.363Z,34
2016-06-04T08:31:43.659Z,34
2016-06-04T08:32:01.912Z,34
2016-06-04T08:32:20.037Z,34
2016-06-04T08:32:38.303Z,34
2016-06-04T08:32:56.569Z,34
2016-06-04T08:33:14.868Z,34
2016-06-04T08:33:33.133Z,34
2016-06-04T08:33:51.414Z,34
2016-06-04T08:34:09.528Z,34
2016-06-04T08:34:27.793Z,34
2016-06-04T08:34:46.059Z,34
2016-06-04T08:35:04.342Z,34
2016-06-04T08:35:22.608Z,34
2016-06-04T08:35:40.749Z,34
2016-06-04T08:35:58.749Z,34
2016-06-04T08:36:17.032Z,34
2016-06-04T08:36:42.266Z,34
2016-06-04T08:37:00.219Z,34
2016-06-04T08:37:18.504Z,33
2016-06-04T08:37:36.785Z,33
2016-06-04T08:37:55.035Z,33
2016-06-04T08:38:13.319Z,33
2016-06-04T08:38:31.616Z,33